Cheltenham, United Kingdom
Current Conditions -  °F | °C
As of 6:50 PM on Friday 28 Nov 2014 (Local Time) from EGBJ Reporting Station
Broken Clouds Broken Clouds  
Wind Chill: 54°   Ceiling: 1100
Heat Index: 54°   Visibility: 5mi
Dew Point: 48°   Wind: 8mph
Humidity: 82%   Direction: 50°NE
Pressure: 29.68"   Gusts: NA
Location:  51.9°N, 2.07°W
Report Text: EGBJ 281850Z 05007KT 8000 BKN011 12/09 Q1005
Loading
Personal Weather Stations






























Interactive Weather Map New forecast layout! Learn more

10-Day Weather Forecast

Advertisements
Track Severe Weather on mobile